createdAt,value
2023-11-17T00:02:09.859Z,1.60
2023-11-17T00:04:36.929Z,1.40
2023-11-17T00:21:35.875Z,1.90
2023-11-17T00:24:04.763Z,1.50
2023-11-17T00:26:32.551Z,1.80
2023-11-17T00:29:01.207Z,1.70
2023-11-17T00:31:30.724Z,1.50
2023-11-17T00:33:59.856Z,2.00
2023-11-17T00:36:26.711Z,1.90
2023-11-17T00:38:53.642Z,1.83
2023-11-17T00:41:27.991Z,2.03
2023-11-17T00:43:58.775Z,1.80
2023-11-17T00:46:25.887Z,1.70
2023-11-17T00:48:52.780Z,1.97
2023-11-17T00:51:20.158Z,1.30
2023-11-17T00:53:47.296Z,1.40
2023-11-17T00:56:15.181Z,1.50
2023-11-17T00:58:42.045Z,1.30
2023-11-17T01:01:10.370Z,1.30
2023-11-17T01:03:38.177Z,1.40
2023-11-17T01:06:05.768Z,2.00
2023-11-17T01:08:33.951Z,1.80
2023-11-17T01:11:00.818Z,1.40
2023-11-17T01:13:28.067Z,1.60
2023-11-17T01:15:54.927Z,1.40
2023-11-17T01:18:22.004Z,1.50
2023-11-17T01:20:48.911Z,1.60
2023-11-17T01:23:15.789Z,1.40
2023-11-17T01:25:42.997Z,1.50
2023-11-17T01:28:10.467Z,1.27
2023-11-17T01:30:37.500Z,1.37
2023-11-17T01:33:05.248Z,1.30
2023-11-17T01:35:32.243Z,2.90
2023-11-17T01:37:59.071Z,2.10
2023-11-17T01:40:25.980Z,2.80
2023-11-17T01:42:53.190Z,1.40
2023-11-17T01:45:22.456Z,2.07
2023-11-17T01:47:49.885Z,2.40
2023-11-17T01:50:17.429Z,2.27
2023-11-17T01:52:44.934Z,2.63
2023-11-17T01:55:13.641Z,1.50
2023-11-17T01:57:41.847Z,1.90
2023-11-17T02:00:16.090Z,1.90
2023-11-17T02:02:51.125Z,1.50
2023-11-17T02:05:23.922Z,1.33
2023-11-17T02:08:09.388Z,1.50
2023-11-17T02:10:51.677Z,1.30
2023-11-17T02:14:06.826Z,1.30
2023-11-17T02:16:37.395Z,1.20
2023-11-17T02:19:16.460Z,1.30
2023-11-17T02:21:47.076Z,1.43
2023-11-17T02:24:16.043Z,1.53
2023-11-17T02:26:43.812Z,1.40
2023-11-17T02:29:28.899Z,1.00
2023-11-17T02:32:00.042Z,1.10
2023-11-17T02:34:27.706Z,1.30
2023-11-17T02:36:54.938Z,1.30
2023-11-17T02:39:30.544Z,1.10
2023-11-17T02:42:00.254Z,1.17
2023-11-17T02:44:34.626Z,1.30
2023-11-17T02:47:06.214Z,1.20
2023-11-17T02:49:42.034Z,1.27
2023-11-17T02:52:25.646Z,1.03
2023-11-17T02:54:55.085Z,1.07
2023-11-17T02:57:25.463Z,1.20
2023-11-17T02:59:53.121Z,1.10
2023-11-17T03:02:21.066Z,1.03
2023-11-17T03:04:55.684Z,1.23
2023-11-17T03:07:23.043Z,0.93
2023-11-17T03:09:53.604Z,1.20
2023-11-17T03:12:21.261Z,1.00
2023-11-17T03:14:48.209Z,1.20
2023-11-17T03:17:15.143Z,1.20
2023-11-17T03:25:19.708Z,1.00
2023-11-17T03:27:51.771Z,1.10
2023-11-17T03:30:19.387Z,1.20
2023-11-17T03:32:56.013Z,1.37
2023-11-17T03:35:23.188Z,1.20
2023-11-17T03:37:52.105Z,1.27
2023-11-17T03:40:20.206Z,1.20
2023-11-17T03:42:47.489Z,1.20
2023-11-17T03:45:16.682Z,1.30
2023-11-17T03:47:45.164Z,1.27
2023-11-17T03:50:15.123Z,1.20
2023-11-17T03:52:42.687Z,1.30
2023-11-17T03:55:12.734Z,1.23
2023-11-17T03:57:39.918Z,1.70
2023-11-17T04:00:08.624Z,1.50
2023-11-17T04:02:36.133Z,1.30
2023-11-17T04:05:04.968Z,2.00
2023-11-17T04:07:32.039Z,1.50
2023-11-17T04:10:00.619Z,1.47
2023-11-17T04:12:28.068Z,1.60
2023-11-17T04:14:55.150Z,1.60
2023-11-17T04:17:21.989Z,1.70
2023-11-17T04:19:48.820Z,1.70
2023-11-17T04:22:17.034Z,1.80
2023-11-17T04:24:44.065Z,1.80
2023-11-17T04:27:12.072Z,1.97
2023-11-17T04:29:39.056Z,1.80
2023-11-17T04:32:06.104Z,1.97
2023-11-17T04:34:32.929Z,1.93
2023-11-17T04:37:00.031Z,1.70
2023-11-17T04:39:28.013Z,1.93
2023-11-17T04:41:54.880Z,1.77
2023-11-17T04:44:21.949Z,2.40
2023-11-17T04:46:51.842Z,2.23
2023-11-17T04:49:18.824Z,2.47
2023-11-17T04:51:48.493Z,2.60
2023-11-17T04:54:15.946Z,2.00
2023-11-17T04:56:42.991Z,2.00
2023-11-17T04:59:13.142Z,1.70
2023-11-17T05:01:40.627Z,1.70
2023-11-17T05:04:08.673Z,2.20
2023-11-17T05:06:36.299Z,2.20
2023-11-17T05:09:10.536Z,2.10
2023-11-17T05:11:38.570Z,2.40
2023-11-17T05:14:08.934Z,2.70
2023-11-17T05:16:39.224Z,2.80
2023-11-17T05:19:06.752Z,2.50
2023-11-17T05:21:34.126Z,3.03
2023-11-17T05:24:03.964Z,3.07
2023-11-17T05:26:30.823Z,3.63
2023-11-17T05:28:57.622Z,3.07
2023-11-17T05:31:27.347Z,4.73
2023-11-17T05:33:54.568Z,3.47
2023-11-17T05:36:21.357Z,3.23
2023-11-17T05:38:49.416Z,3.00
2023-11-17T05:41:16.254Z,3.20
2023-11-17T05:43:48.551Z,3.27
2023-11-17T05:46:15.933Z,3.13
2023-11-17T05:48:43.026Z,3.10
2023-11-17T05:51:10.589Z,3.03
2023-11-17T05:53:39.142Z,2.80
2023-11-17T05:56:09.332Z,3.27
2023-11-17T05:58:36.551Z,2.73
2023-11-17T06:01:04.154Z,2.70
2023-11-17T06:03:32.261Z,3.00
2023-11-17T06:05:59.340Z,2.97
2023-11-17T06:08:26.607Z,2.80
2023-11-17T06:10:53.391Z,2.83
2023-11-17T06:13:20.291Z,3.63
2023-11-17T06:15:47.862Z,2.80
2023-11-17T06:18:15.895Z,3.00
2023-11-17T06:20:43.145Z,2.77
2023-11-17T06:23:09.981Z,2.77
2023-11-17T06:25:37.029Z,2.87
2023-11-17T06:28:04.510Z,2.70
2023-11-17T06:30:31.724Z,2.67
2023-11-17T06:32:58.576Z,3.10
2023-11-17T06:35:25.692Z,2.90
2023-11-17T06:37:52.578Z,3.10
2023-11-17T06:40:19.533Z,3.10
2023-11-17T06:42:46.418Z,3.83
2023-11-17T06:45:13.389Z,3.47
2023-11-17T06:47:46.484Z,3.87
2023-11-17T06:50:13.632Z,3.07
2023-11-17T06:52:40.656Z,4.03
2023-11-17T06:55:08.229Z,3.27
2023-11-17T06:57:35.079Z,3.47
2023-11-17T07:00:02.107Z,3.80
2023-11-17T07:02:32.107Z,3.90
2023-11-17T07:04:59.042Z,3.97
2023-11-17T07:07:26.135Z,3.87
2023-11-17T07:09:53.200Z,3.30
2023-11-17T07:12:21.032Z,3.57
2023-11-17T07:14:49.783Z,3.40
2023-11-17T07:17:17.078Z,3.90
2023-11-17T07:19:44.696Z,3.77
2023-11-17T07:22:12.181Z,4.03
2023-11-17T07:24:39.217Z,4.00
2023-11-17T07:27:09.210Z,3.40
2023-11-17T07:29:37.823Z,3.93
2023-11-17T07:32:05.579Z,3.90
2023-11-17T07:34:32.634Z,4.27
2023-11-17T07:36:59.704Z,4.10
2023-11-17T07:39:26.815Z,3.70
2023-11-17T07:41:54.420Z,4.17
2023-11-17T07:44:23.151Z,4.17
2023-11-17T07:46:50.629Z,4.13
2023-11-17T07:49:21.065Z,4.20
2023-11-17T07:51:49.453Z,4.17
2023-11-17T07:54:18.256Z,4.10
2023-11-17T07:56:48.166Z,3.93
2023-11-17T07:59:16.252Z,4.50
2023-11-17T08:01:43.191Z,4.13
2023-11-17T08:04:10.470Z,5.67
2023-11-17T08:06:38.516Z,4.37
2023-11-17T08:09:10.538Z,4.07
2023-11-17T08:11:38.562Z,4.23
2023-11-17T08:14:10.276Z,4.40
2023-11-17T08:16:37.774Z,4.60
2023-11-17T08:21:35.386Z,4.30
2023-11-17T08:24:02.552Z,4.83
2023-11-17T08:26:33.022Z,4.30
2023-11-17T08:29:00.720Z,4.00
2023-11-17T08:31:28.409Z,10.93
2023-11-17T08:33:55.721Z,4.10
2023-11-17T08:36:25.638Z,3.33
2023-11-17T08:38:54.475Z,4.00
2023-11-17T08:41:21.310Z,3.70
2023-11-17T08:43:48.420Z,3.90
2023-11-17T08:46:16.012Z,3.30
2023-11-17T08:48:43.913Z,3.70
2023-11-17T08:51:10.829Z,3.53
2023-11-17T08:53:38.507Z,3.43
2023-11-17T08:56:07.370Z,4.23
2023-11-17T08:58:36.019Z,3.33
2023-11-17T09:01:03.110Z,3.57
2023-11-17T09:03:31.204Z,3.70
2023-11-17T09:05:58.394Z,3.87
2023-11-17T09:08:25.219Z,3.90
2023-11-17T09:10:51.956Z,3.60
2023-11-17T09:13:18.820Z,5.07
2023-11-17T09:15:46.481Z,3.87
2023-11-17T09:18:15.088Z,3.57
2023-11-17T09:20:43.282Z,4.17
2023-11-17T09:23:11.168Z,3.60
2023-11-17T09:25:38.092Z,3.70
2023-11-17T09:28:05.152Z,4.03
2023-11-17T09:30:32.380Z,4.50
2023-11-17T09:33:01.060Z,4.23
2023-11-17T09:35:28.970Z,5.43
2023-11-17T09:38:02.193Z,4.10
2023-11-17T09:40:30.945Z,4.90
2023-11-17T09:42:59.600Z,4.23
2023-11-17T09:45:28.609Z,4.80
2023-11-17T09:48:02.525Z,4.33
2023-11-17T09:50:30.863Z,4.40
2023-11-17T09:53:00.477Z,3.73
2023-11-17T09:55:32.599Z,3.87
2023-11-17T09:58:04.103Z,4.27
2023-11-17T10:00:32.784Z,4.37
2023-11-17T10:03:02.749Z,3.30
2023-11-17T10:05:31.362Z,4.17
2023-11-17T10:08:06.637Z,4.10
2023-11-17T10:10:41.216Z,3.70
2023-11-17T10:13:12.954Z,3.97
2023-11-17T10:15:48.219Z,3.33
2023-11-17T10:18:27.063Z,3.60
2023-11-17T10:20:55.422Z,3.40
2023-11-17T10:23:22.559Z,3.60
2023-11-17T10:25:56.730Z,3.90
2023-11-17T10:28:26.299Z,3.60
2023-11-17T10:30:56.917Z,3.63
2023-11-17T10:33:27.499Z,4.33
2023-11-17T10:36:14.501Z,3.63
2023-11-17T10:38:47.464Z,3.97
2023-11-17T10:41:36.778Z,3.30
2023-11-17T10:44:05.309Z,3.97
2023-11-17T10:46:43.514Z,3.40
2023-11-17T10:49:20.608Z,3.80
2023-11-17T10:51:48.786Z,3.77
2023-11-17T10:54:15.750Z,3.90
2023-11-17T10:56:45.515Z,3.83
2023-11-17T10:59:22.731Z,3.40
2023-11-17T11:01:51.460Z,3.23
2023-11-17T11:04:27.299Z,3.47
2023-11-17T11:07:00.046Z,3.83
2023-11-17T11:09:37.601Z,3.70
2023-11-17T11:12:13.261Z,3.30
2023-11-17T11:14:45.209Z,3.67
2023-11-17T11:17:12.777Z,3.30
2023-11-17T11:19:52.701Z,3.60
2023-11-17T11:22:29.526Z,3.60
2023-11-17T11:24:57.120Z,3.47
2023-11-17T11:27:25.284Z,3.37
2023-11-17T11:29:54.022Z,2.93
2023-11-17T11:32:21.881Z,3.20
2023-11-17T11:34:49.687Z,3.10
2023-11-17T11:37:18.577Z,2.73
2023-11-17T11:39:47.061Z,3.23
2023-11-17T11:42:14.192Z,2.83
2023-11-17T11:44:42.834Z,2.87
2023-11-17T11:47:10.134Z,3.50
2023-11-17T11:49:37.645Z,2.80
2023-11-17T11:52:17.580Z,3.03
2023-11-17T11:54:46.556Z,3.20
2023-11-17T11:57:29.913Z,3.70
2023-11-17T12:00:16.471Z,3.20
2023-11-17T12:02:59.871Z,3.30
2023-11-17T12:05:32.128Z,3.97
2023-11-17T12:08:01.482Z,5.27
2023-11-17T12:10:42.857Z,5.00
2023-11-17T12:13:47.402Z,5.37
2023-11-17T12:16:40.212Z,3.93
2023-11-17T12:19:08.412Z,4.20
2023-11-17T12:21:41.665Z,3.60
2023-11-17T12:24:12.122Z,3.30
2023-11-17T12:26:40.043Z,3.60
2023-11-17T12:29:07.399Z,3.70
2023-11-17T12:31:35.411Z,3.27
2023-11-17T12:34:06.383Z,3.03
2023-11-17T12:36:35.897Z,3.97
2023-11-17T12:39:13.001Z,3.87
2023-11-17T12:41:39.829Z,3.47
2023-11-17T12:44:06.816Z,3.20
2023-11-17T12:46:33.833Z,3.20
2023-11-17T12:49:04.417Z,2.90
2023-11-17T12:51:33.546Z,2.87
2023-11-17T12:54:03.436Z,2.67
2023-11-17T12:56:30.514Z,2.87
2023-11-17T12:58:57.352Z,3.33
2023-11-17T13:01:27.018Z,2.90
2023-11-17T13:04:00.336Z,2.70
2023-11-17T13:06:28.598Z,2.77
2023-11-17T13:08:55.871Z,3.00
2023-11-17T13:11:24.592Z,2.83
2023-11-17T13:13:55.309Z,2.33
2023-11-17T13:16:22.228Z,3.07
2023-11-17T13:18:52.259Z,6.90
2023-11-17T13:21:20.061Z,4.70
2023-11-17T13:23:47.870Z,3.37
2023-11-17T13:26:27.185Z,3.40
2023-11-17T13:28:55.347Z,2.60
2023-11-17T13:31:24.075Z,3.80
2023-11-17T13:33:53.474Z,2.90
2023-11-17T13:36:36.307Z,2.90
2023-11-17T13:39:20.628Z,3.13
2023-11-17T13:41:49.809Z,2.63
2023-11-17T13:44:25.125Z,2.77
2023-11-17T13:46:59.335Z,2.93
2023-11-17T13:49:27.167Z,2.50
2023-11-17T13:51:58.794Z,3.00
2023-11-17T13:54:28.859Z,3.73
2023-11-17T13:56:55.820Z,3.87
2023-11-17T13:59:27.362Z,3.17
2023-11-17T14:01:58.532Z,3.37
2023-11-17T14:04:30.237Z,3.37
2023-11-17T14:07:00.771Z,3.20
2023-11-17T14:09:29.739Z,2.60
2023-11-17T14:11:58.887Z,2.60
2023-11-17T14:14:28.127Z,2.60
2023-11-17T14:16:56.155Z,2.17
2023-11-17T14:19:29.579Z,2.67
2023-11-17T14:21:56.463Z,2.73
2023-11-17T14:24:23.378Z,2.40
2023-11-17T14:26:56.988Z,2.93
2023-11-17T14:29:29.509Z,2.53
2023-11-17T14:31:56.484Z,2.40
2023-11-17T14:34:23.872Z,2.60
2023-11-17T14:36:54.782Z,2.57
2023-11-17T14:39:30.422Z,2.90
2023-11-17T14:42:01.401Z,3.30
2023-11-17T14:44:29.750Z,2.83
2023-11-17T14:46:57.496Z,2.53
2023-11-17T14:49:24.980Z,2.30
2023-11-17T14:51:52.129Z,2.60
2023-11-17T14:54:19.222Z,2.07
2023-11-17T14:56:46.494Z,2.70
2023-11-17T14:59:13.973Z,2.03
2023-11-17T15:01:44.057Z,2.30
2023-11-17T15:04:11.279Z,2.00
2023-11-17T15:06:38.190Z,1.90
2023-11-17T15:09:05.732Z,2.00
2023-11-17T15:11:33.439Z,2.10
2023-11-17T15:14:05.503Z,2.27
2023-11-17T15:16:35.115Z,1.93
2023-11-17T15:19:02.346Z,2.00
2023-11-17T15:21:34.565Z,2.10
2023-11-17T15:24:01.460Z,5.80
2023-11-17T15:26:28.599Z,2.90
2023-11-17T15:28:56.119Z,2.50
2023-11-17T15:31:25.177Z,2.00
2023-11-17T15:33:52.917Z,2.60
2023-11-17T15:36:25.636Z,3.03
2023-11-17T15:38:59.380Z,3.63
2023-11-17T15:41:26.460Z,2.47
2023-11-17T15:43:53.347Z,3.40
2023-11-17T15:46:24.027Z,2.93
2023-11-17T15:48:56.266Z,3.10
2023-11-17T15:51:23.438Z,2.53
2023-11-17T15:53:53.322Z,2.60
2023-11-17T15:56:20.202Z,2.10
2023-11-17T15:58:47.420Z,1.90
2023-11-17T16:01:15.428Z,1.90
2023-11-17T16:03:42.750Z,1.70
2023-11-17T16:06:11.296Z,2.50
2023-11-17T16:08:39.026Z,2.07
2023-11-17T16:11:10.368Z,1.83
2023-11-17T16:13:40.752Z,2.33
2023-11-17T16:16:09.402Z,2.30
2023-11-17T16:18:39.065Z,2.93
2023-11-17T16:21:08.341Z,2.80
2023-11-17T16:23:37.423Z,2.77
2023-11-17T16:26:11.012Z,3.13
2023-11-17T16:28:39.524Z,3.10
2023-11-17T16:31:13.768Z,5.63
2023-11-17T16:33:43.533Z,3.03
2023-11-17T16:36:13.963Z,3.60
2023-11-17T16:38:42.361Z,2.90
2023-11-17T16:41:10.696Z,3.07
2023-11-17T16:43:37.745Z,3.27
2023-11-17T16:46:05.823Z,3.63
2023-11-17T16:48:33.954Z,3.93
2023-11-17T16:51:03.677Z,5.07
2023-11-17T16:53:30.714Z,5.03
2023-11-17T16:55:57.826Z,5.27
2023-11-17T16:58:25.017Z,5.37
2023-11-17T17:00:55.627Z,6.20
2023-11-17T17:03:23.400Z,5.37
2023-11-17T17:05:51.341Z,4.00
2023-11-17T17:08:23.304Z,3.77
2023-11-17T17:10:50.206Z,4.17
2023-11-17T17:13:17.046Z,4.60
2023-11-17T17:15:43.958Z,3.53
2023-11-17T17:18:14.128Z,3.87
2023-11-17T17:20:42.246Z,4.57
2023-11-17T17:23:13.081Z,4.50
2023-11-17T17:25:41.665Z,4.70
2023-11-17T17:28:13.535Z,4.57
2023-11-17T17:30:42.435Z,4.90
2023-11-17T17:33:13.806Z,4.40
2023-11-17T17:35:42.482Z,4.40
2023-11-17T17:38:12.084Z,4.13
2023-11-17T17:40:40.295Z,3.90
2023-11-17T17:43:07.976Z,4.30
2023-11-17T17:45:35.131Z,4.70
2023-11-17T17:48:02.132Z,5.37
2023-11-17T17:50:29.940Z,4.63
2023-11-17T17:52:59.059Z,4.67
2023-11-17T17:55:28.259Z,4.80
2023-11-17T17:57:57.276Z,4.80
2023-11-17T18:00:25.937Z,7.33
2023-11-17T18:02:59.417Z,6.47
2023-11-17T18:05:27.607Z,5.00
2023-11-17T18:07:54.722Z,5.30
2023-11-17T18:10:22.402Z,5.70
2023-11-17T18:12:51.732Z,6.27
2023-11-17T18:15:22.864Z,5.73
2023-11-17T18:17:51.777Z,5.60
2023-11-17T18:20:20.185Z,6.00
2023-11-17T18:22:52.143Z,6.07
2023-11-17T18:25:20.403Z,6.03
2023-11-17T18:27:49.870Z,5.90
2023-11-17T18:30:18.438Z,5.63
2023-11-17T18:32:45.991Z,5.27
2023-11-17T18:35:15.728Z,5.47
2023-11-17T18:37:46.081Z,5.63
2023-11-17T18:40:22.713Z,5.63
2023-11-17T18:42:51.462Z,5.40
2023-11-17T18:45:20.241Z,4.77
2023-11-17T18:47:47.733Z,4.40
2023-11-17T18:50:14.701Z,5.00
2023-11-17T18:52:43.536Z,4.97
2023-11-17T18:55:14.912Z,6.17
2023-11-17T18:57:42.376Z,7.27
2023-11-17T19:00:19.086Z,7.50
2023-11-17T19:02:49.980Z,4.53
2023-11-17T19:05:17.418Z,4.77
2023-11-17T19:07:48.074Z,5.27
2023-11-17T19:10:16.987Z,6.27
2023-11-17T19:12:45.284Z,5.07
2023-11-17T19:15:12.674Z,5.70
2023-11-17T19:17:43.503Z,5.20
2023-11-17T19:20:13.068Z,4.70
2023-11-17T19:22:47.636Z,5.03
2023-11-17T19:25:15.591Z,5.57
2023-11-17T19:27:44.932Z,5.20
2023-11-17T19:30:17.793Z,4.73
2023-11-17T19:32:47.957Z,4.77
2023-11-17T19:35:16.543Z,4.43
2023-11-17T19:37:44.531Z,5.23
2023-11-17T19:40:13.949Z,5.17
2023-11-17T19:42:43.337Z,5.40
2023-11-17T19:45:16.610Z,5.23
2023-11-17T19:47:45.487Z,5.50
2023-11-17T19:50:15.561Z,5.30
2023-11-17T19:52:44.621Z,5.10
2023-11-17T19:55:12.105Z,3.70
2023-11-17T19:57:39.694Z,3.83
2023-11-17T20:00:07.834Z,3.60
2023-11-17T20:02:36.491Z,4.17
2023-11-17T20:05:03.885Z,3.87
2023-11-17T20:07:31.529Z,4.10
2023-11-17T20:09:59.762Z,3.90
2023-11-17T20:12:27.766Z,3.93
2023-11-17T20:14:57.925Z,3.20
2023-11-17T20:17:24.989Z,3.57
2023-11-17T20:19:51.946Z,4.10
2023-11-17T20:22:20.423Z,4.13
2023-11-17T20:24:47.654Z,3.97
2023-11-17T20:27:17.065Z,4.80
2023-11-17T20:29:45.221Z,5.47
2023-11-17T20:32:12.837Z,5.23
2023-11-17T20:34:39.684Z,4.33
2023-11-17T20:37:06.561Z,4.00
2023-11-17T20:39:35.019Z,3.40
2023-11-17T20:42:01.814Z,3.67
2023-11-17T20:44:28.648Z,3.80
2023-11-17T20:46:59.355Z,4.00
2023-11-17T20:49:26.342Z,4.07
2023-11-17T20:51:53.289Z,3.77
2023-11-17T20:54:20.157Z,3.73
2023-11-17T20:56:49.525Z,4.07
2023-11-17T20:59:16.552Z,3.37
2023-11-17T21:01:46.616Z,4.20
2023-11-17T21:04:16.087Z,4.07
2023-11-17T21:06:44.945Z,4.17
2023-11-17T21:09:14.330Z,4.47
2023-11-17T21:11:47.278Z,4.13
2023-11-17T21:14:16.432Z,4.33
2023-11-17T21:16:43.706Z,4.67
2023-11-17T21:19:11.318Z,4.97
2023-11-17T21:21:41.104Z,4.53
2023-11-17T21:24:18.630Z,4.27
2023-11-17T21:26:52.514Z,4.60
2023-11-17T21:29:20.866Z,4.77
2023-11-17T21:31:50.084Z,4.27
2023-11-17T21:34:17.426Z,4.60
2023-11-17T21:36:44.303Z,4.30
2023-11-17T21:39:12.205Z,3.90
2023-11-17T21:41:39.181Z,4.07
2023-11-17T21:44:07.957Z,4.80
2023-11-17T21:46:34.805Z,5.03
2023-11-17T21:49:01.733Z,4.67
2023-11-17T21:51:28.491Z,5.00
2023-11-17T21:53:55.576Z,4.93
2023-11-17T21:56:22.831Z,4.87
2023-11-17T21:58:50.948Z,4.63
2023-11-17T22:01:18.365Z,4.13
2023-11-17T22:03:45.352Z,4.83
2023-11-17T22:06:12.839Z,4.60
2023-11-17T22:08:40.942Z,5.10
2023-11-17T22:11:08.636Z,4.80
2023-11-17T22:13:37.408Z,4.40
2023-11-17T22:16:06.225Z,4.83
2023-11-17T22:18:33.278Z,4.30
2023-11-17T22:21:00.380Z,4.40
2023-11-17T22:23:27.346Z,3.83
2023-11-17T22:25:54.280Z,4.43
2023-11-17T22:28:21.183Z,4.20
2023-11-17T22:30:48.075Z,4.33
2023-11-17T22:33:14.939Z,4.07
2023-11-17T22:35:45.269Z,4.83
2023-11-17T22:38:12.379Z,4.33
2023-11-17T22:40:39.318Z,4.97
2023-11-17T22:43:06.552Z,4.37
2023-11-17T22:45:35.069Z,4.93
2023-11-17T22:48:02.101Z,4.10
2023-11-17T22:50:29.249Z,4.03
2023-11-17T22:52:56.166Z,3.60
2023-11-17T22:55:23.244Z,3.43
2023-11-17T22:57:50.983Z,4.33
2023-11-17T23:00:51.739Z,3.50
2023-11-17T23:03:18.647Z,3.33
2023-11-17T23:05:46.310Z,3.40
2023-11-17T23:08:13.933Z,3.60
2023-11-17T23:10:42.179Z,3.70
2023-11-17T23:13:10.108Z,3.40
2023-11-17T23:15:36.994Z,3.70
2023-11-17T23:18:04.011Z,3.53
2023-11-17T23:20:32.028Z,3.03
2023-11-17T23:22:58.952Z,3.10
2023-11-17T23:25:26.390Z,3.33
2023-11-17T23:27:53.842Z,3.10
2023-11-17T23:30:20.947Z,3.20
2023-11-17T23:32:48.638Z,3.07
2023-11-17T23:35:15.759Z,3.00
2023-11-17T23:37:42.607Z,3.20
2023-11-17T23:40:17.156Z,2.97
2023-11-17T23:42:50.086Z,3.40
2023-11-17T23:45:17.913Z,2.70
2023-11-17T23:47:44.993Z,3.60
2023-11-17T23:50:13.038Z,3.37
2023-11-17T23:52:40.382Z,2.93
2023-11-17T23:55:08.248Z,3.43
2023-11-17T23:57:35.513Z,2.97
